sensor_id;sensor_type;location;lat;lon;timestamp;P1;durP1;ratioP1;P2;durP2;ratioP2
36001;SDS011;22070;50.922;5.430;2022-09-09T00:00:19;3.63;;;0.70;;
36001;SDS011;22070;50.922;5.430;2022-09-09T00:05:59;4.03;;;0.90;;
36001;SDS011;22070;50.922;5.430;2022-09-09T00:14:12;2.83;;;0.90;;
36001;SDS011;22070;50.922;5.430;2022-09-09T00:17:01;2.10;;;0.70;;
36001;SDS011;22070;50.922;5.430;2022-09-09T00:19:33;4.30;;;0.80;;
36001;SDS011;22070;50.922;5.430;2022-09-09T00:22:20;4.47;;;0.70;;
36001;SDS011;22070;50.922;5.430;2022-09-09T00:24:53;3.70;;;0.77;;
36001;SDS011;22070;50.922;5.430;2022-09-09T00:27:31;1.70;;;0.77;;
36001;SDS011;22070;50.922;5.430;2022-09-09T00:30:26;2.70;;;1.00;;
36001;SDS011;22070;50.922;5.430;2022-09-09T00:32:59;3.22;;;0.90;;
36001;SDS011;22070;50.922;5.430;2022-09-09T00:41:04;4.82;;;0.75;;
36001;SDS011;22070;50.922;5.430;2022-09-09T00:43:33;4.28;;;1.00;;
36001;SDS011;22070;50.922;5.430;2022-09-09T00:46:10;4.22;;;1.20;;
36001;SDS011;22070;50.922;5.430;2022-09-09T00:48:53;3.17;;;1.00;;
36001;SDS011;22070;50.922;5.430;2022-09-09T01:04:47;4.80;;;1.10;;
36001;SDS011;22070;50.922;5.430;2022-09-09T01:07:16;4.28;;;1.10;;
36001;SDS011;22070;50.922;5.430;2022-09-09T01:09:56;2.25;;;0.90;;
36001;SDS011;22070;50.922;5.430;2022-09-09T01:12:25;4.10;;;1.02;;
36001;SDS011;22070;50.922;5.430;2022-09-09T01:15:10;3.40;;;1.05;;
36001;SDS011;22070;50.922;5.430;2022-09-09T01:17:53;6.53;;;1.10;;
36001;SDS011;22070;50.922;5.430;2022-09-09T01:23:32;4.55;;;0.93;;
36001;SDS011;22070;50.922;5.430;2022-09-09T01:26:35;3.35;;;1.30;;
36001;SDS011;22070;50.922;5.430;2022-09-09T01:29:09;3.50;;;1.27;;
36001;SDS011;22070;50.922;5.430;2022-09-09T01:34:13;4.40;;;1.10;;
36001;SDS011;22070;50.922;5.430;2022-09-09T01:36:52;3.75;;;1.35;;
36001;SDS011;22070;50.922;5.430;2022-09-09T01:39:24;7.10;;;1.63;;
36001;SDS011;22070;50.922;5.430;2022-09-09T01:41:49;6.77;;;1.53;;
36001;SDS011;22070;50.922;5.430;2022-09-09T01:44:15;3.93;;;1.70;;
36001;SDS011;22070;50.922;5.430;2022-09-09T01:46:43;6.82;;;1.63;;
36001;SDS011;22070;50.922;5.430;2022-09-09T01:49:09;5.30;;;1.60;;
36001;SDS011;22070;50.922;5.430;2022-09-09T01:51:35;7.65;;;1.92;;
36001;SDS011;22070;50.922;5.430;2022-09-09T01:54:03;3.97;;;1.60;;
36001;SDS011;22070;50.922;5.430;2022-09-09T02:04:43;6.90;;;1.75;;
36001;SDS011;22070;50.922;5.430;2022-09-09T02:07:37;5.50;;;1.50;;
36001;SDS011;22070;50.922;5.430;2022-09-09T02:10:14;6.95;;;1.48;;
36001;SDS011;22070;50.922;5.430;2022-09-09T02:12:54;7.82;;;1.40;;
36001;SDS011;22070;50.922;5.430;2022-09-09T02:15:32;7.60;;;1.55;;
36001;SDS011;22070;50.922;5.430;2022-09-09T02:18:03;6.03;;;1.27;;
36001;SDS011;22070;50.922;5.430;2022-09-09T02:20:33;11.23;;;1.90;;
36001;SDS011;22070;50.922;5.430;2022-09-09T02:23:02;4.32;;;1.50;;
36001;SDS011;22070;50.922;5.430;2022-09-09T02:25:30;7.45;;;1.75;;
36001;SDS011;22070;50.922;5.430;2022-09-09T02:27:58;3.65;;;1.42;;
36001;SDS011;22070;50.922;5.430;2022-09-09T02:30:24;3.13;;;1.50;;
36001;SDS011;22070;50.922;5.430;2022-09-09T02:32:52;7.45;;;1.80;;
36001;SDS011;22070;50.922;5.430;2022-09-09T02:35:23;6.00;;;1.70;;
36001;SDS011;22070;50.922;5.430;2022-09-09T02:37:50;3.50;;;1.83;;
36001;SDS011;22070;50.922;5.430;2022-09-09T02:40:18;9.98;;;1.90;;
36001;SDS011;22070;50.922;5.430;2022-09-09T02:42:46;5.35;;;1.42;;
36001;SDS011;22070;50.922;5.430;2022-09-09T02:45:14;9.07;;;1.77;;
36001;SDS011;22070;50.922;5.430;2022-09-09T02:55:41;7.80;;;1.80;;
36001;SDS011;22070;50.922;5.430;2022-09-09T02:58:30;6.32;;;1.83;;
36001;SDS011;22070;50.922;5.430;2022-09-09T03:00:56;6.83;;;1.47;;
36001;SDS011;22070;50.922;5.430;2022-09-09T03:03:22;7.43;;;1.70;;
36001;SDS011;22070;50.922;5.430;2022-09-09T03:05:49;7.05;;;1.58;;
36001;SDS011;22070;50.922;5.430;2022-09-09T03:08:15;6.25;;;1.83;;
36001;SDS011;22070;50.922;5.430;2022-09-09T03:10:42;8.55;;;1.40;;
36001;SDS011;22070;50.922;5.430;2022-09-09T03:13:07;4.80;;;1.30;;
36001;SDS011;22070;50.922;5.430;2022-09-09T03:15:34;9.52;;;1.75;;
36001;SDS011;22070;50.922;5.430;2022-09-09T03:18:00;5.60;;;1.70;;
36001;SDS011;22070;50.922;5.430;2022-09-09T03:20:26;8.02;;;1.50;;
36001;SDS011;22070;50.922;5.430;2022-09-09T03:22:53;6.60;;;2.10;;
36001;SDS011;22070;50.922;5.430;2022-09-09T03:25:20;9.35;;;2.45;;
36001;SDS011;22070;50.922;5.430;2022-09-09T03:27:48;7.18;;;1.70;;
36001;SDS011;22070;50.922;5.430;2022-09-09T03:30:14;8.50;;;1.40;;
36001;SDS011;22070;50.922;5.430;2022-09-09T03:32:40;7.13;;;1.60;;
36001;SDS011;22070;50.922;5.430;2022-09-09T03:35:06;7.43;;;1.70;;
36001;SDS011;22070;50.922;5.430;2022-09-09T03:37:33;6.53;;;1.30;;
36001;SDS011;22070;50.922;5.430;2022-09-09T03:39:58;7.22;;;1.88;;
36001;SDS011;22070;50.922;5.430;2022-09-09T03:42:25;7.57;;;2.00;;
36001;SDS011;22070;50.922;5.430;2022-09-09T03:44:50;5.50;;;1.83;;
36001;SDS011;22070;50.922;5.430;2022-09-09T03:47:17;10.33;;;2.40;;
36001;SDS011;22070;50.922;5.430;2022-09-09T03:52:09;8.13;;;2.00;;
36001;SDS011;22070;50.922;5.430;2022-09-09T03:54:34;7.22;;;2.10;;
36001;SDS011;22070;50.922;5.430;2022-09-09T03:57:00;4.20;;;1.30;;
36001;SDS011;22070;50.922;5.430;2022-09-09T03:59:26;7.10;;;1.48;;
36001;SDS011;22070;50.922;5.430;2022-09-09T04:01:53;5.40;;;1.45;;
36001;SDS011;22070;50.922;5.430;2022-09-09T04:06:45;9.67;;;1.67;;
36001;SDS011;22070;50.922;5.430;2022-09-09T04:09:13;6.00;;;1.50;;
36001;SDS011;22070;50.922;5.430;2022-09-09T04:11:39;4.50;;;1.40;;
36001;SDS011;22070;50.922;5.430;2022-09-09T04:14:04;6.32;;;1.48;;
36001;SDS011;22070;50.922;5.430;2022-09-09T04:16:31;4.97;;;1.30;;
36001;SDS011;22070;50.922;5.430;2022-09-09T04:18:58;5.20;;;1.65;;
36001;SDS011;22070;50.922;5.430;2022-09-09T04:23:51;7.47;;;1.67;;
36001;SDS011;22070;50.922;5.430;2022-09-09T04:26:17;4.75;;;1.20;;
36001;SDS011;22070;50.922;5.430;2022-09-09T04:28:43;8.63;;;1.47;;
36001;SDS011;22070;50.922;5.430;2022-09-09T04:31:10;5.72;;;1.27;;
36001;SDS011;22070;50.922;5.430;2022-09-09T04:33:43;8.57;;;1.40;;
36001;SDS011;22070;50.922;5.430;2022-09-09T04:36:09;6.63;;;1.60;;
36001;SDS011;22070;50.922;5.430;2022-09-09T04:38:35;9.68;;;1.75;;
36001;SDS011;22070;50.922;5.430;2022-09-09T04:41:01;6.57;;;1.60;;
36001;SDS011;22070;50.922;5.430;2022-09-09T04:43:26;9.27;;;1.55;;
36001;SDS011;22070;50.922;5.430;2022-09-09T04:45:52;7.70;;;1.50;;
36001;SDS011;22070;50.922;5.430;2022-09-09T04:48:18;8.43;;;2.28;;
36001;SDS011;22070;50.922;5.430;2022-09-09T04:50:53;7.30;;;1.60;;
36001;SDS011;22070;50.922;5.430;2022-09-09T04:53:22;4.18;;;1.50;;
36001;SDS011;22070;50.922;5.430;2022-09-09T04:55:48;9.13;;;1.58;;
36001;SDS011;22070;50.922;5.430;2022-09-09T04:58:14;7.13;;;1.38;;
36001;SDS011;22070;50.922;5.430;2022-09-09T05:00:40;7.75;;;1.75;;
36001;SDS011;22070;50.922;5.430;2022-09-09T05:03:06;9.68;;;1.77;;
36001;SDS011;22070;50.922;5.430;2022-09-09T05:05:33;6.50;;;1.40;;
36001;SDS011;22070;50.922;5.430;2022-09-09T05:08:00;7.65;;;1.65;;
36001;SDS011;22070;50.922;5.430;2022-09-09T05:10:27;8.02;;;1.60;;
36001;SDS011;22070;50.922;5.430;2022-09-09T05:12:53;6.32;;;1.60;;
36001;SDS011;22070;50.922;5.430;2022-09-09T05:15:19;9.85;;;1.50;;
36001;SDS011;22070;50.922;5.430;2022-09-09T05:17:46;6.20;;;1.50;;
36001;SDS011;22070;50.922;5.430;2022-09-09T05:20:11;6.57;;;1.80;;
36001;SDS011;22070;50.922;5.430;2022-09-09T05:22:37;6.65;;;1.55;;
36001;SDS011;22070;50.922;5.430;2022-09-09T05:25:03;5.47;;;1.97;;
36001;SDS011;22070;50.922;5.430;2022-09-09T05:27:29;13.05;;;2.40;;
36001;SDS011;22070;50.922;5.430;2022-09-09T05:29:56;11.18;;;1.73;;
36001;SDS011;22070;50.922;5.430;2022-09-09T05:32:23;11.95;;;1.90;;
36001;SDS011;22070;50.922;5.430;2022-09-09T05:34:49;7.73;;;1.57;;
36001;SDS011;22070;50.922;5.430;2022-09-09T05:37:15;11.90;;;1.80;;
36001;SDS011;22070;50.922;5.430;2022-09-09T05:39:41;13.05;;;1.98;;
36001;SDS011;22070;50.922;5.430;2022-09-09T05:42:07;8.45;;;2.47;;
36001;SDS011;22070;50.922;5.430;2022-09-09T05:44:32;13.02;;;1.63;;
36001;SDS011;22070;50.922;5.430;2022-09-09T05:46:58;9.70;;;1.67;;
36001;SDS011;22070;50.922;5.430;2022-09-09T05:49:24;4.27;;;1.30;;
36001;SDS011;22070;50.922;5.430;2022-09-09T05:51:50;6.93;;;1.48;;
36001;SDS011;22070;50.922;5.430;2022-09-09T05:54:16;9.90;;;1.83;;
36001;SDS011;22070;50.922;5.430;2022-09-09T05:56:42;9.32;;;1.52;;
36001;SDS011;22070;50.922;5.430;2022-09-09T05:59:08;7.28;;;1.15;;
36001;SDS011;22070;50.922;5.430;2022-09-09T06:01:35;8.30;;;1.48;;
36001;SDS011;22070;50.922;5.430;2022-09-09T06:04:05;9.13;;;1.35;;
36001;SDS011;22070;50.922;5.430;2022-09-09T06:06:32;9.00;;;1.60;;
36001;SDS011;22070;50.922;5.430;2022-09-09T06:09:04;6.20;;;1.40;;
36001;SDS011;22070;50.922;5.430;2022-09-09T06:11:35;9.32;;;1.52;;
36001;SDS011;22070;50.922;5.430;2022-09-09T06:14:03;9.38;;;1.73;;
36001;SDS011;22070;50.922;5.430;2022-09-09T06:16:30;11.05;;;1.60;;
36001;SDS011;22070;50.922;5.430;2022-09-09T06:19:00;10.20;;;1.63;;
36001;SDS011;22070;50.922;5.430;2022-09-09T06:21:31;5.32;;;1.10;;
36001;SDS011;22070;50.922;5.430;2022-09-09T06:24:04;8.27;;;1.60;;
36001;SDS011;22070;50.922;5.430;2022-09-09T06:26:31;9.45;;;1.77;;
36001;SDS011;22070;50.922;5.430;2022-09-09T06:29:01;5.38;;;1.52;;
36001;SDS011;22070;50.922;5.430;2022-09-09T06:31:29;3.92;;;1.25;;
36001;SDS011;22070;50.922;5.430;2022-09-09T06:33:56;6.82;;;1.60;;
36001;SDS011;22070;50.922;5.430;2022-09-09T06:36:24;6.35;;;1.40;;
36001;SDS011;22070;50.922;5.430;2022-09-09T06:38:51;6.97;;;1.70;;
36001;SDS011;22070;50.922;5.430;2022-09-09T06:41:18;11.40;;;1.80;;
36001;SDS011;22070;50.922;5.430;2022-09-09T06:43:45;8.18;;;1.20;;
36001;SDS011;22070;50.922;5.430;2022-09-09T06:46:12;2.70;;;1.00;;
36001;SDS011;22070;50.922;5.430;2022-09-09T06:48:39;9.07;;;1.67;;
36001;SDS011;22070;50.922;5.430;2022-09-09T06:53:34;7.55;;;1.60;;
36001;SDS011;22070;50.922;5.430;2022-09-09T06:56:01;7.55;;;1.88;;
36001;SDS011;22070;50.922;5.430;2022-09-09T06:58:42;5.30;;;1.25;;
36001;SDS011;22070;50.922;5.430;2022-09-09T07:01:20;11.40;;;1.60;;
36001;SDS011;22070;50.922;5.430;2022-09-09T07:03:49;5.80;;;1.20;;
36001;SDS011;22070;50.922;5.430;2022-09-09T07:06:20;4.43;;;1.30;;
36001;SDS011;22070;50.922;5.430;2022-09-09T07:08:54;6.78;;;1.40;;
36001;SDS011;22070;50.922;5.430;2022-09-09T07:11:21;8.35;;;1.30;;
36001;SDS011;22070;50.922;5.430;2022-09-09T07:13:48;5.78;;;1.55;;
36001;SDS011;22070;50.922;5.430;2022-09-09T07:16:18;4.50;;;1.30;;
36001;SDS011;22070;50.922;5.430;2022-09-09T07:18:45;6.32;;;1.40;;
36001;SDS011;22070;50.922;5.430;2022-09-09T07:21:11;5.57;;;1.23;;
36001;SDS011;22070;50.922;5.430;2022-09-09T07:23:38;7.57;;;1.67;;
36001;SDS011;22070;50.922;5.430;2022-09-09T07:26:14;12.18;;;1.27;;
36001;SDS011;22070;50.922;5.430;2022-09-09T07:28:44;7.28;;;1.20;;
36001;SDS011;22070;50.922;5.430;2022-09-09T07:31:17;4.57;;;1.35;;
36001;SDS011;22070;50.922;5.430;2022-09-09T07:33:45;5.47;;;0.90;;
36001;SDS011;22070;50.922;5.430;2022-09-09T07:36:13;8.40;;;1.63;;
36001;SDS011;22070;50.922;5.430;2022-09-09T07:38:42;9.90;;;1.17;;
36001;SDS011;22070;50.922;5.430;2022-09-09T07:41:11;9.48;;;1.33;;
36001;SDS011;22070;50.922;5.430;2022-09-09T07:43:39;4.00;;;0.95;;
36001;SDS011;22070;50.922;5.430;2022-09-09T07:46:07;7.35;;;1.38;;
36001;SDS011;22070;50.922;5.430;2022-09-09T07:48:33;5.32;;;1.25;;
36001;SDS011;22070;50.922;5.430;2022-09-09T07:51:04;4.40;;;1.55;;
36001;SDS011;22070;50.922;5.430;2022-09-09T07:53:32;11.73;;;1.67;;
36001;SDS011;22070;50.922;5.430;2022-09-09T07:56:05;5.30;;;1.30;;
36001;SDS011;22070;50.922;5.430;2022-09-09T07:58:35;6.35;;;1.20;;
36001;SDS011;22070;50.922;5.430;2022-09-09T08:01:06;4.78;;;1.23;;
36001;SDS011;22070;50.922;5.430;2022-09-09T08:03:33;10.35;;;1.17;;
36001;SDS011;22070;50.922;5.430;2022-09-09T08:06:00;2.43;;;0.87;;
36001;SDS011;22070;50.922;5.430;2022-09-09T08:08:27;8.90;;;1.20;;
36001;SDS011;22070;50.922;5.430;2022-09-09T08:10:53;6.45;;;1.02;;
36001;SDS011;22070;50.922;5.430;2022-09-09T08:13:25;8.50;;;1.55;;
36001;SDS011;22070;50.922;5.430;2022-09-09T08:15:52;7.18;;;1.30;;
36001;SDS011;22070;50.922;5.430;2022-09-09T08:18:17;5.93;;;1.00;;
36001;SDS011;22070;50.922;5.430;2022-09-09T08:20:43;8.67;;;1.43;;
36001;SDS011;22070;50.922;5.430;2022-09-09T08:23:09;10.82;;;1.20;;
36001;SDS011;22070;50.922;5.430;2022-09-09T08:25:35;7.20;;;1.27;;
36001;SDS011;22070;50.922;5.430;2022-09-09T08:28:00;8.90;;;1.75;;
36001;SDS011;22070;50.922;5.430;2022-09-09T08:30:26;9.57;;;1.20;;
36001;SDS011;22070;50.922;5.430;2022-09-09T08:32:52;5.13;;;1.17;;
36001;SDS011;22070;50.922;5.430;2022-09-09T08:35:17;4.80;;;1.00;;
36001;SDS011;22070;50.922;5.430;2022-09-09T08:37:45;4.22;;;1.10;;
36001;SDS011;22070;50.922;5.430;2022-09-09T08:40:13;5.27;;;1.10;;
36001;SDS011;22070;50.922;5.430;2022-09-09T08:42:47;5.57;;;0.95;;
36001;SDS011;22070;50.922;5.430;2022-09-09T08:50:35;10.25;;;1.42;;
36001;SDS011;22070;50.922;5.430;2022-09-09T08:55:47;4.00;;;1.10;;
36001;SDS011;22070;50.922;5.430;2022-09-09T08:58:19;7.00;;;1.33;;
36001;SDS011;22070;50.922;5.430;2022-09-09T09:03:38;5.95;;;1.05;;
36001;SDS011;22070;50.922;5.430;2022-09-09T09:12:16;5.07;;;1.10;;
36001;SDS011;22070;50.922;5.430;2022-09-09T09:14:44;1.50;;;0.77;;
36001;SDS011;22070;50.922;5.430;2022-09-09T09:17:13;7.13;;;1.08;;
36001;SDS011;22070;50.922;5.430;2022-09-09T09:19:42;10.55;;;1.20;;
36001;SDS011;22070;50.922;5.430;2022-09-09T09:24:52;5.40;;;0.95;;
36001;SDS011;22070;50.922;5.430;2022-09-09T09:32:40;4.97;;;0.90;;
36001;SDS011;22070;50.922;5.430;2022-09-09T09:35:16;3.63;;;1.10;;
36001;SDS011;22070;50.922;5.430;2022-09-09T09:37:42;3.43;;;1.00;;
36001;SDS011;22070;50.922;5.430;2022-09-09T09:40:11;4.95;;;1.20;;
36001;SDS011;22070;50.922;5.430;2022-09-09T09:42:58;3.88;;;0.77;;
36001;SDS011;22070;50.922;5.430;2022-09-09T09:45:32;4.03;;;1.17;;
36001;SDS011;22070;50.922;5.430;2022-09-09T09:48:12;7.75;;;1.30;;
36001;SDS011;22070;50.922;5.430;2022-09-09T09:58:25;6.90;;;1.30;;
36001;SDS011;22070;50.922;5.430;2022-09-09T10:00:57;5.47;;;0.90;;
36001;SDS011;22070;50.922;5.430;2022-09-09T10:03:28;3.28;;;0.45;;
36001;SDS011;22070;50.922;5.430;2022-09-09T10:05:55;5.13;;;1.10;;
36001;SDS011;22070;50.922;5.430;2022-09-09T10:08:26;2.65;;;0.98;;
36001;SDS011;22070;50.922;5.430;2022-09-09T10:16:25;6.22;;;1.60;;
36001;SDS011;22070;50.922;5.430;2022-09-09T10:18:59;5.50;;;1.17;;
36001;SDS011;22070;50.922;5.430;2022-09-09T10:33:10;2.22;;;0.85;;
36001;SDS011;22070;50.922;5.430;2022-09-09T10:35:46;5.25;;;1.30;;
36001;SDS011;22070;50.922;5.430;2022-09-09T10:38:40;4.70;;;1.30;;
36001;SDS011;22070;50.922;5.430;2022-09-09T10:41:24;5.35;;;1.40;;
36001;SDS011;22070;50.922;5.430;2022-09-09T10:49:25;7.70;;;1.70;;
36001;SDS011;22070;50.922;5.430;2022-09-09T10:52:36;3.92;;;1.23;;
36001;SDS011;22070;50.922;5.430;2022-09-09T10:55:20;8.90;;;1.40;;
36001;SDS011;22070;50.922;5.430;2022-09-09T10:57:51;6.05;;;1.52;;
36001;SDS011;22070;50.922;5.430;2022-09-09T11:00:20;3.65;;;1.40;;
36001;SDS011;22070;50.922;5.430;2022-09-09T11:02:49;5.63;;;1.60;;
36001;SDS011;22070;50.922;5.430;2022-09-09T11:08:04;4.03;;;1.58;;
36001;SDS011;22070;50.922;5.430;2022-09-09T11:10:41;3.50;;;1.35;;
36001;SDS011;22070;50.922;5.430;2022-09-09T11:13:13;5.15;;;1.50;;
36001;SDS011;22070;50.922;5.430;2022-09-09T11:15:45;6.50;;;1.67;;
36001;SDS011;22070;50.922;5.430;2022-09-09T11:18:19;4.25;;;1.88;;
36001;SDS011;22070;50.922;5.430;2022-09-09T11:20:48;6.47;;;1.33;;
36001;SDS011;22070;50.922;5.430;2022-09-09T11:26:10;6.05;;;1.27;;
36001;SDS011;22070;50.922;5.430;2022-09-09T11:31:50;4.95;;;1.77;;
36001;SDS011;22070;50.922;5.430;2022-09-09T11:42:46;4.22;;;1.42;;
36001;SDS011;22070;50.922;5.430;2022-09-09T11:45:24;2.28;;;0.80;;
36001;SDS011;22070;50.922;5.430;2022-09-09T11:47:54;3.20;;;1.08;;
36001;SDS011;22070;50.922;5.430;2022-09-09T11:52:47;2.13;;;0.90;;
36001;SDS011;22070;50.922;5.430;2022-09-09T11:55:27;5.35;;;1.05;;
36001;SDS011;22070;50.922;5.430;2022-09-09T11:58:28;3.47;;;0.93;;
36001;SDS011;22070;50.922;5.430;2022-09-09T12:00:48;5.03;;;1.10;;
36001;SDS011;22070;50.922;5.430;2022-09-09T12:08:42;6.22;;;1.20;;
36001;SDS011;22070;50.922;5.430;2022-09-09T12:11:10;2.80;;;1.10;;
36001;SDS011;22070;50.922;5.430;2022-09-09T12:13:36;4.80;;;1.50;;
36001;SDS011;22070;50.922;5.430;2022-09-09T12:16:02;5.13;;;1.23;;
36001;SDS011;22070;50.922;5.430;2022-09-09T12:18:37;9.35;;;1.70;;
36001;SDS011;22070;50.922;5.430;2022-09-09T12:34:33;3.00;;;1.02;;
36001;SDS011;22070;50.922;5.430;2022-09-09T12:37:26;5.57;;;0.90;;
36001;SDS011;22070;50.922;5.430;2022-09-09T12:40:02;4.13;;;0.80;;
36001;SDS011;22070;50.922;5.430;2022-09-09T12:42:31;2.90;;;0.80;;
36001;SDS011;22070;50.922;5.430;2022-09-09T12:45:01;1.85;;;0.88;;
36001;SDS011;22070;50.922;5.430;2022-09-09T12:50:23;2.60;;;0.73;;
36001;SDS011;22070;50.922;5.430;2022-09-09T12:52:52;4.32;;;0.65;;
36001;SDS011;22070;50.922;5.430;2022-09-09T12:55:21;2.10;;;0.50;;
36001;SDS011;22070;50.922;5.430;2022-09-09T12:57:50;1.77;;;0.80;;
36001;SDS011;22070;50.922;5.430;2022-09-09T13:02:52;2.55;;;0.70;;
36001;SDS011;22070;50.922;5.430;2022-09-09T13:05:23;1.67;;;0.70;;
36001;SDS011;22070;50.922;5.430;2022-09-09T13:08:06;2.22;;;0.75;;
36001;SDS011;22070;50.922;5.430;2022-09-09T13:10:43;4.40;;;1.13;;
36001;SDS011;22070;50.922;5.430;2022-09-09T13:13:20;4.10;;;1.13;;
36001;SDS011;22070;50.922;5.430;2022-09-09T13:15:52;8.80;;;1.27;;
36001;SDS011;22070;50.922;5.430;2022-09-09T13:18:21;5.20;;;1.05;;
36001;SDS011;22070;50.922;5.430;2022-09-09T13:20:49;2.30;;;1.00;;
36001;SDS011;22070;50.922;5.430;2022-09-09T13:25:57;4.97;;;1.10;;
36001;SDS011;22070;50.922;5.430;2022-09-09T13:28:26;5.90;;;1.13;;
36001;SDS011;22070;50.922;5.430;2022-09-09T13:31:04;4.05;;;1.38;;
36001;SDS011;22070;50.922;5.430;2022-09-09T13:33:38;3.85;;;1.60;;
36001;SDS011;22070;50.922;5.430;2022-09-09T13:36:06;3.97;;;1.10;;
36001;SDS011;22070;50.922;5.430;2022-09-09T13:38:37;3.80;;;1.20;;
36001;SDS011;22070;50.922;5.430;2022-09-09T13:41:21;2.92;;;1.00;;
36001;SDS011;22070;50.922;5.430;2022-09-09T13:43:49;1.92;;;1.23;;
36001;SDS011;22070;50.922;5.430;2022-09-09T13:48:56;6.80;;;1.70;;
36001;SDS011;22070;50.922;5.430;2022-09-09T13:51:34;2.33;;;1.13;;
36001;SDS011;22070;50.922;5.430;2022-09-09T13:54:12;3.58;;;0.90;;
36001;SDS011;22070;50.922;5.430;2022-09-09T13:56:39;2.47;;;1.08;;
36001;SDS011;22070;50.922;5.430;2022-09-09T13:59:09;4.18;;;1.02;;
36001;SDS011;22070;50.922;5.430;2022-09-09T14:01:36;2.33;;;1.00;;
36001;SDS011;22070;50.922;5.430;2022-09-09T14:04:02;4.33;;;1.00;;
36001;SDS011;22070;50.922;5.430;2022-09-09T14:06:28;3.90;;;0.80;;
36001;SDS011;22070;50.922;5.430;2022-09-09T14:08:57;5.72;;;1.00;;
36001;SDS011;22070;50.922;5.430;2022-09-09T14:11:23;3.92;;;0.90;;
36001;SDS011;22070;50.922;5.430;2022-09-09T14:13:49;5.23;;;0.93;;
36001;SDS011;22070;50.922;5.430;2022-09-09T14:16:15;3.73;;;0.90;;
36001;SDS011;22070;50.922;5.430;2022-09-09T14:18:42;5.15;;;1.00;;
36001;SDS011;22070;50.922;5.430;2022-09-09T14:21:09;3.60;;;1.10;;
36001;SDS011;22070;50.922;5.430;2022-09-09T14:23:34;3.07;;;0.90;;
36001;SDS011;22070;50.922;5.430;2022-09-09T14:26:00;1.97;;;0.80;;
36001;SDS011;22070;50.922;5.430;2022-09-09T14:28:26;2.77;;;0.90;;
36001;SDS011;22070;50.922;5.430;2022-09-09T14:30:53;4.65;;;1.45;;
36001;SDS011;22070;50.922;5.430;2022-09-09T14:33:19;2.47;;;1.20;;
36001;SDS011;22070;50.922;5.430;2022-09-09T14:35:44;2.07;;;0.83;;
36001;SDS011;22070;50.922;5.430;2022-09-09T14:38:10;4.10;;;1.00;;
36001;SDS011;22070;50.922;5.430;2022-09-09T14:40:36;4.40;;;1.40;;
36001;SDS011;22070;50.922;5.430;2022-09-09T14:43:03;3.30;;;0.93;;
36001;SDS011;22070;50.922;5.430;2022-09-09T14:45:28;5.22;;;1.20;;
36001;SDS011;22070;50.922;5.430;2022-09-09T14:47:54;2.87;;;1.00;;
36001;SDS011;22070;50.922;5.430;2022-09-09T14:50:20;2.13;;;0.70;;
36001;SDS011;22070;50.922;5.430;2022-09-09T14:52:47;2.53;;;0.98;;
36001;SDS011;22070;50.922;5.430;2022-09-09T14:55:13;3.73;;;1.10;;
36001;SDS011;22070;50.922;5.430;2022-09-09T14:57:40;3.10;;;1.10;;
36001;SDS011;22070;50.922;5.430;2022-09-09T15:00:06;2.58;;;0.90;;
36001;SDS011;22070;50.922;5.430;2022-09-09T15:02:33;4.22;;;1.05;;
36001;SDS011;22070;50.922;5.430;2022-09-09T15:04:59;5.15;;;1.15;;
36001;SDS011;22070;50.922;5.430;2022-09-09T15:09:53;3.55;;;0.73;;
36001;SDS011;22070;50.922;5.430;2022-09-09T15:12:19;2.95;;;0.80;;
36001;SDS011;22070;50.922;5.430;2022-09-09T15:14:45;2.33;;;0.82;;
36001;SDS011;22070;50.922;5.430;2022-09-09T15:17:11;2.33;;;0.70;;
36001;SDS011;22070;50.922;5.430;2022-09-09T15:19:37;2.90;;;0.60;;
36001;SDS011;22070;50.922;5.430;2022-09-09T15:22:04;2.70;;;1.07;;
36001;SDS011;22070;50.922;5.430;2022-09-09T15:24:33;2.28;;;0.75;;
36001;SDS011;22070;50.922;5.430;2022-09-09T15:27:00;3.08;;;0.80;;
36001;SDS011;22070;50.922;5.430;2022-09-09T15:31:53;3.40;;;0.77;;
36001;SDS011;22070;50.922;5.430;2022-09-09T15:34:20;2.70;;;0.82;;
36001;SDS011;22070;50.922;5.430;2022-09-09T15:36:46;3.17;;;0.80;;
36001;SDS011;22070;50.922;5.430;2022-09-09T15:39:12;3.13;;;1.07;;
36001;SDS011;22070;50.922;5.430;2022-09-09T15:41:46;1.65;;;0.80;;
36001;SDS011;22070;50.922;5.430;2022-09-09T15:44:12;3.75;;;1.13;;
36001;SDS011;22070;50.922;5.430;2022-09-09T15:47:12;3.40;;;0.70;;
36001;SDS011;22070;50.922;5.430;2022-09-09T15:49:30;3.78;;;0.77;;
36001;SDS011;22070;50.922;5.430;2022-09-09T15:51:57;3.53;;;0.90;;
36001;SDS011;22070;50.922;5.430;2022-09-09T15:54:27;4.28;;;1.00;;
36001;SDS011;22070;50.922;5.430;2022-09-09T15:56:56;2.92;;;1.20;;
36001;SDS011;22070;50.922;5.430;2022-09-09T15:59:25;3.50;;;1.00;;
36001;SDS011;22070;50.922;5.430;2022-09-09T16:01:55;4.82;;;1.13;;
36001;SDS011;22070;50.922;5.430;2022-09-09T16:04:22;3.53;;;0.98;;
36001;SDS011;22070;50.922;5.430;2022-09-09T16:06:56;4.10;;;1.13;;
36001;SDS011;22070;50.922;5.430;2022-09-09T16:09:25;3.20;;;0.98;;
36001;SDS011;22070;50.922;5.430;2022-09-09T16:11:52;4.07;;;1.10;;
36001;SDS011;22070;50.922;5.430;2022-09-09T16:14:20;4.18;;;1.02;;
36001;SDS011;22070;50.922;5.430;2022-09-09T16:16:46;1.58;;;0.95;;
36001;SDS011;22070;50.922;5.430;2022-09-09T16:19:13;3.65;;;1.00;;
36001;SDS011;22070;50.922;5.430;2022-09-09T16:21:42;3.47;;;0.73;;
36001;SDS011;22070;50.922;5.430;2022-09-09T16:24:10;4.43;;;0.80;;
36001;SDS011;22070;50.922;5.430;2022-09-09T16:26:39;1.85;;;0.65;;
36001;SDS011;22070;50.922;5.430;2022-09-09T16:29:10;1.52;;;0.63;;
36001;SDS011;22070;50.922;5.430;2022-09-09T16:31:37;1.08;;;0.60;;
36001;SDS011;22070;50.922;5.430;2022-09-09T16:34:03;0.65;;;0.20;;
36001;SDS011;22070;50.922;5.430;2022-09-09T16:36:29;1.83;;;0.90;;
36001;SDS011;22070;50.922;5.430;2022-09-09T16:39:04;3.30;;;0.60;;
36001;SDS011;22070;50.922;5.430;2022-09-09T16:41:31;2.05;;;0.60;;
36001;SDS011;22070;50.922;5.430;2022-09-09T16:43:59;2.83;;;0.77;;
36001;SDS011;22070;50.922;5.430;2022-09-09T16:46:27;3.20;;;0.82;;
36001;SDS011;22070;50.922;5.430;2022-09-09T16:48:53;7.47;;;1.10;;
36001;SDS011;22070;50.922;5.430;2022-09-09T16:51:27;1.80;;;0.98;;
36001;SDS011;22070;50.922;5.430;2022-09-09T16:53:55;5.53;;;1.15;;
36001;SDS011;22070;50.922;5.430;2022-09-09T16:56:24;9.55;;;1.95;;
36001;SDS011;22070;50.922;5.430;2022-09-09T16:58:52;6.93;;;1.00;;
36001;SDS011;22070;50.922;5.430;2022-09-09T17:01:26;3.38;;;0.95;;
36001;SDS011;22070;50.922;5.430;2022-09-09T17:03:58;4.13;;;1.38;;
36001;SDS011;22070;50.922;5.430;2022-09-09T17:06:26;2.22;;;0.95;;
36001;SDS011;22070;50.922;5.430;2022-09-09T17:08:59;3.95;;;1.15;;
36001;SDS011;22070;50.922;5.430;2022-09-09T17:11:26;2.47;;;1.05;;
36001;SDS011;22070;50.922;5.430;2022-09-09T17:16:20;3.97;;;0.80;;
36001;SDS011;22070;50.922;5.430;2022-09-09T17:18:51;5.10;;;1.10;;
36001;SDS011;22070;50.922;5.430;2022-09-09T17:21:18;4.35;;;1.00;;
36001;SDS011;22070;50.922;5.430;2022-09-09T17:23:46;3.70;;;1.15;;
36001;SDS011;22070;50.922;5.430;2022-09-09T17:26:13;5.10;;;1.13;;
36001;SDS011;22070;50.922;5.430;2022-09-09T17:28:41;5.35;;;1.17;;
36001;SDS011;22070;50.922;5.430;2022-09-09T17:31:09;3.38;;;0.98;;
36001;SDS011;22070;50.922;5.430;2022-09-09T17:33:36;2.28;;;0.85;;
36001;SDS011;22070;50.922;5.430;2022-09-09T17:38:34;3.63;;;0.93;;
36001;SDS011;22070;50.922;5.430;2022-09-09T17:41:03;4.97;;;1.07;;
36001;SDS011;22070;50.922;5.430;2022-09-09T17:43:31;4.88;;;0.98;;
36001;SDS011;22070;50.922;5.430;2022-09-09T17:48:36;2.00;;;0.80;;
36001;SDS011;22070;50.922;5.430;2022-09-09T17:51:03;1.17;;;0.63;;
36001;SDS011;22070;50.922;5.430;2022-09-09T17:53:37;5.10;;;0.75;;
36001;SDS011;22070;50.922;5.430;2022-09-09T17:56:05;5.05;;;1.00;;
36001;SDS011;22070;50.922;5.430;2022-09-09T17:58:32;3.63;;;1.10;;